Current Weather

Paulo Afonso

Paulo Afonso, Brazil (SBUF)

Report from: Saturday, December 3, 2022 12:00 PM -03
Current time: Sunday, December 4, 2022 10:05 AM -03

Nearby weather
Weather history
Weather forecast

Temperature30.0°C (86.0°F)
Heat index32.7°C (90.8°F)
Dew point21.0°C (69.8°F)
Winds 6 kts (3.1 m/s, 6.9 mph) East-Southeast (110°)
Visibility6.2 mi. (10 km)
Clouds Scattered clouds 2,000 ft. (610 m)
Scattered clouds 7,000 ft. (2,134 m)
Altimeter29.85 in.Hg (1011 mB)
Relative humidity59 %
Density altitude2,130 ft. (649 m)
Flight conditions Visual Meteorological Conditions
Raw dataSBUF 031500Z 11006KT 9999 SCT020 SCT070 30/21 Q1011
An error has occurred. This application may no longer respond until reloaded. Reload 🗙